sensor_id;sensor_type;location;lat;lon;timestamp;P1;durP1;ratioP1;P2;durP2;ratioP2
49610;SDS011;35515;48.766;9.176;2023-12-14T00:01:32;3.72;;;1.67;;
49610;SDS011;35515;48.766;9.176;2023-12-14T00:03:59;3.13;;;1.60;;
49610;SDS011;35515;48.766;9.176;2023-12-14T00:06:27;7.60;;;1.70;;
49610;SDS011;35515;48.766;9.176;2023-12-14T00:08:53;2.33;;;1.52;;
49610;SDS011;35515;48.766;9.176;2023-12-14T00:11:20;3.58;;;1.60;;
49610;SDS011;35515;48.766;9.176;2023-12-14T00:13:46;2.95;;;1.67;;
49610;SDS011;35515;48.766;9.176;2023-12-14T00:16:13;4.13;;;2.08;;
49610;SDS011;35515;48.766;9.176;2023-12-14T00:18:39;4.38;;;1.58;;
49610;SDS011;35515;48.766;9.176;2023-12-14T00:21:06;4.97;;;1.88;;
49610;SDS011;35515;48.766;9.176;2023-12-14T00:23:34;2.50;;;1.92;;
49610;SDS011;35515;48.766;9.176;2023-12-14T00:26:01;3.10;;;1.50;;
49610;SDS011;35515;48.766;9.176;2023-12-14T00:28:28;4.15;;;1.88;;
49610;SDS011;35515;48.766;9.176;2023-12-14T00:30:54;2.40;;;1.58;;
49610;SDS011;35515;48.766;9.176;2023-12-14T00:33:21;3.80;;;1.77;;
49610;SDS011;35515;48.766;9.176;2023-12-14T00:35:47;4.47;;;2.00;;
49610;SDS011;35515;48.766;9.176;2023-12-14T00:38:14;3.17;;;1.80;;
49610;SDS011;35515;48.766;9.176;2023-12-14T00:40:42;4.55;;;2.20;;
49610;SDS011;35515;48.766;9.176;2023-12-14T00:43:08;3.30;;;1.98;;
49610;SDS011;35515;48.766;9.176;2023-12-14T00:45:35;4.18;;;2.10;;
49610;SDS011;35515;48.766;9.176;2023-12-14T00:48:02;4.07;;;1.77;;
49610;SDS011;35515;48.766;9.176;2023-12-14T00:50:28;6.28;;;1.92;;
49610;SDS011;35515;48.766;9.176;2023-12-14T00:52:55;2.00;;;1.60;;
49610;SDS011;35515;48.766;9.176;2023-12-14T00:55:21;3.30;;;1.88;;
49610;SDS011;35515;48.766;9.176;2023-12-14T00:57:49;5.32;;;1.83;;
49610;SDS011;35515;48.766;9.176;2023-12-14T01:00:16;4.22;;;2.20;;
49610;SDS011;35515;48.766;9.176;2023-12-14T01:02:43;2.72;;;1.95;;
49610;SDS011;35515;48.766;9.176;2023-12-14T01:05:10;3.55;;;2.13;;
49610;SDS011;35515;48.766;9.176;2023-12-14T01:07:36;5.03;;;2.25;;
49610;SDS011;35515;48.766;9.176;2023-12-14T01:10:03;2.70;;;1.83;;
49610;SDS011;35515;48.766;9.176;2023-12-14T01:12:30;3.03;;;2.20;;
49610;SDS011;35515;48.766;9.176;2023-12-14T01:14:58;3.50;;;1.70;;
49610;SDS011;35515;48.766;9.176;2023-12-14T01:17:24;3.25;;;1.85;;
49610;SDS011;35515;48.766;9.176;2023-12-14T01:19:52;3.08;;;1.85;;
49610;SDS011;35515;48.766;9.176;2023-12-14T01:22:18;5.35;;;2.42;;
49610;SDS011;35515;48.766;9.176;2023-12-14T01:24:45;7.15;;;3.47;;
49610;SDS011;35515;48.766;9.176;2023-12-14T01:27:11;4.18;;;2.60;;
49610;SDS011;35515;48.766;9.176;2023-12-14T01:29:39;5.30;;;3.08;;
49610;SDS011;35515;48.766;9.176;2023-12-14T01:32:07;5.63;;;2.72;;
49610;SDS011;35515;48.766;9.176;2023-12-14T01:34:33;3.97;;;2.10;;
49610;SDS011;35515;48.766;9.176;2023-12-14T01:37:00;3.63;;;2.03;;
49610;SDS011;35515;48.766;9.176;2023-12-14T01:39:26;4.95;;;2.20;;
49610;SDS011;35515;48.766;9.176;2023-12-14T01:41:53;6.30;;;2.75;;
49610;SDS011;35515;48.766;9.176;2023-12-14T01:44:19;5.47;;;2.35;;
49610;SDS011;35515;48.766;9.176;2023-12-14T01:46:46;3.55;;;2.17;;
49610;SDS011;35515;48.766;9.176;2023-12-14T01:49:13;4.60;;;2.60;;
49610;SDS011;35515;48.766;9.176;2023-12-14T01:51:40;3.83;;;2.33;;
49610;SDS011;35515;48.766;9.176;2023-12-14T01:54:07;2.55;;;2.00;;
49610;SDS011;35515;48.766;9.176;2023-12-14T01:56:33;4.05;;;1.98;;
49610;SDS011;35515;48.766;9.176;2023-12-14T01:59:00;3.88;;;2.65;;
49610;SDS011;35515;48.766;9.176;2023-12-14T02:01:28;3.85;;;2.22;;
49610;SDS011;35515;48.766;9.176;2023-12-14T02:04:04;7.00;;;3.45;;
49610;SDS011;35515;48.766;9.176;2023-12-14T02:06:33;4.35;;;2.20;;
49610;SDS011;35515;48.766;9.176;2023-12-14T02:09:00;6.35;;;2.65;;
49610;SDS011;35515;48.766;9.176;2023-12-14T02:11:26;4.68;;;2.00;;
49610;SDS011;35515;48.766;9.176;2023-12-14T02:13:53;3.70;;;2.00;;
49610;SDS011;35515;48.766;9.176;2023-12-14T02:16:19;4.22;;;2.40;;
49610;SDS011;35515;48.766;9.176;2023-12-14T02:18:46;5.60;;;2.38;;
49610;SDS011;35515;48.766;9.176;2023-12-14T02:21:13;3.38;;;2.05;;
49610;SDS011;35515;48.766;9.176;2023-12-14T02:23:43;3.58;;;1.67;;
49610;SDS011;35515;48.766;9.176;2023-12-14T02:26:10;3.80;;;1.60;;
49610;SDS011;35515;48.766;9.176;2023-12-14T02:28:36;3.88;;;1.70;;
49610;SDS011;35515;48.766;9.176;2023-12-14T02:31:03;3.30;;;1.60;;
49610;SDS011;35515;48.766;9.176;2023-12-14T02:33:30;2.67;;;1.70;;
49610;SDS011;35515;48.766;9.176;2023-12-14T02:35:57;1.77;;;1.50;;
49610;SDS011;35515;48.766;9.176;2023-12-14T02:38:23;4.50;;;1.70;;
49610;SDS011;35515;48.766;9.176;2023-12-14T02:40:51;2.22;;;1.60;;
49610;SDS011;35515;48.766;9.176;2023-12-14T02:43:18;2.83;;;1.52;;
49610;SDS011;35515;48.766;9.176;2023-12-14T02:45:44;4.57;;;2.00;;
49610;SDS011;35515;48.766;9.176;2023-12-14T02:48:11;2.65;;;1.48;;
49610;SDS011;35515;48.766;9.176;2023-12-14T02:50:37;2.55;;;1.27;;
49610;SDS011;35515;48.766;9.176;2023-12-14T02:53:04;2.63;;;1.60;;
49610;SDS011;35515;48.766;9.176;2023-12-14T02:55:30;4.18;;;1.52;;
49610;SDS011;35515;48.766;9.176;2023-12-14T02:57:58;2.38;;;1.45;;
49610;SDS011;35515;48.766;9.176;2023-12-14T03:00:25;3.33;;;1.50;;
49610;SDS011;35515;48.766;9.176;2023-12-14T03:02:51;1.38;;;1.27;;
49610;SDS011;35515;48.766;9.176;2023-12-14T03:05:18;2.33;;;1.45;;
49610;SDS011;35515;48.766;9.176;2023-12-14T03:07:45;2.47;;;1.60;;
49610;SDS011;35515;48.766;9.176;2023-12-14T03:10:11;2.55;;;1.60;;
49610;SDS011;35515;48.766;9.176;2023-12-14T03:12:38;2.60;;;1.73;;
49610;SDS011;35515;48.766;9.176;2023-12-14T03:15:06;3.20;;;1.50;;
49610;SDS011;35515;48.766;9.176;2023-12-14T03:17:33;3.65;;;1.55;;
49610;SDS011;35515;48.766;9.176;2023-12-14T03:19:59;3.53;;;1.60;;
49610;SDS011;35515;48.766;9.176;2023-12-14T03:22:26;2.78;;;1.80;;
49610;SDS011;35515;48.766;9.176;2023-12-14T03:24:52;2.05;;;1.25;;
49610;SDS011;35515;48.766;9.176;2023-12-14T03:27:19;3.20;;;1.75;;
49610;SDS011;35515;48.766;9.176;2023-12-14T03:29:47;3.15;;;1.60;;
49610;SDS011;35515;48.766;9.176;2023-12-14T03:32:15;2.33;;;1.70;;
49610;SDS011;35515;48.766;9.176;2023-12-14T03:34:42;3.42;;;1.85;;
49610;SDS011;35515;48.766;9.176;2023-12-14T03:37:08;3.70;;;1.55;;
49610;SDS011;35515;48.766;9.176;2023-12-14T03:39:35;3.85;;;1.50;;
49610;SDS011;35515;48.766;9.176;2023-12-14T03:42:01;3.80;;;2.10;;
49610;SDS011;35515;48.766;9.176;2023-12-14T03:44:28;5.20;;;1.30;;
49610;SDS011;35515;48.766;9.176;2023-12-14T03:46:54;3.50;;;1.38;;
49610;SDS011;35515;48.766;9.176;2023-12-14T03:49:24;4.63;;;1.58;;
49610;SDS011;35515;48.766;9.176;2023-12-14T03:51:50;2.53;;;1.90;;
49610;SDS011;35515;48.766;9.176;2023-12-14T03:54:17;2.88;;;1.50;;
49610;SDS011;35515;48.766;9.176;2023-12-14T03:56:43;3.08;;;1.67;;
49610;SDS011;35515;48.766;9.176;2023-12-14T03:59:10;2.35;;;1.73;;
49610;SDS011;35515;48.766;9.176;2023-12-14T04:01:36;1.50;;;1.33;;
49610;SDS011;35515;48.766;9.176;2023-12-14T04:04:04;3.65;;;1.38;;
49610;SDS011;35515;48.766;9.176;2023-12-14T04:06:32;2.05;;;1.50;;
49610;SDS011;35515;48.766;9.176;2023-12-14T04:08:59;4.13;;;1.60;;
49610;SDS011;35515;48.766;9.176;2023-12-14T04:11:25;1.45;;;1.30;;
49610;SDS011;35515;48.766;9.176;2023-12-14T04:13:52;2.00;;;1.48;;
49610;SDS011;35515;48.766;9.176;2023-12-14T04:16:19;2.88;;;2.10;;
49610;SDS011;35515;48.766;9.176;2023-12-14T04:18:46;2.90;;;1.77;;
49610;SDS011;35515;48.766;9.176;2023-12-14T04:21:13;4.15;;;1.58;;
49610;SDS011;35515;48.766;9.176;2023-12-14T04:23:41;5.10;;;1.90;;
49610;SDS011;35515;48.766;9.176;2023-12-14T04:26:07;4.50;;;2.00;;
49610;SDS011;35515;48.766;9.176;2023-12-14T04:28:34;3.03;;;1.60;;
49610;SDS011;35515;48.766;9.176;2023-12-14T04:31:01;3.50;;;1.80;;
49610;SDS011;35515;48.766;9.176;2023-12-14T04:33:27;2.40;;;1.52;;
49610;SDS011;35515;48.766;9.176;2023-12-14T04:35:54;3.13;;;1.83;;
49610;SDS011;35515;48.766;9.176;2023-12-14T04:38:20;3.90;;;1.95;;
49610;SDS011;35515;48.766;9.176;2023-12-14T04:40:48;4.40;;;2.20;;
49610;SDS011;35515;48.766;9.176;2023-12-14T04:43:15;2.72;;;1.85;;
49610;SDS011;35515;48.766;9.176;2023-12-14T04:45:41;5.35;;;1.92;;
49610;SDS011;35515;48.766;9.176;2023-12-14T04:48:09;3.00;;;2.08;;
49610;SDS011;35515;48.766;9.176;2023-12-14T04:50:35;3.40;;;2.05;;
49610;SDS011;35515;48.766;9.176;2023-12-14T04:53:02;2.83;;;1.85;;
49610;SDS011;35515;48.766;9.176;2023-12-14T04:55:29;3.20;;;1.92;;
49610;SDS011;35515;48.766;9.176;2023-12-14T04:57:57;5.38;;;2.42;;
49610;SDS011;35515;48.766;9.176;2023-12-14T05:00:24;3.45;;;2.17;;
49610;SDS011;35515;48.766;9.176;2023-12-14T05:02:50;4.80;;;2.25;;
49610;SDS011;35515;48.766;9.176;2023-12-14T05:05:17;3.40;;;2.67;;
49610;SDS011;35515;48.766;9.176;2023-12-14T05:07:43;4.30;;;3.00;;
49610;SDS011;35515;48.766;9.176;2023-12-14T05:10:10;3.40;;;2.45;;
49610;SDS011;35515;48.766;9.176;2023-12-14T05:12:36;4.35;;;2.45;;
49610;SDS011;35515;48.766;9.176;2023-12-14T05:15:05;7.60;;;3.10;;
49610;SDS011;35515;48.766;9.176;2023-12-14T05:17:32;5.25;;;3.47;;
49610;SDS011;35515;48.766;9.176;2023-12-14T05:19:59;6.28;;;3.05;;
49610;SDS011;35515;48.766;9.176;2023-12-14T05:22:26;6.15;;;3.15;;
49610;SDS011;35515;48.766;9.176;2023-12-14T05:24:53;5.72;;;3.13;;
49610;SDS011;35515;48.766;9.176;2023-12-14T05:27:19;6.93;;;3.40;;
49610;SDS011;35515;48.766;9.176;2023-12-14T05:29:46;5.97;;;3.75;;
49610;SDS011;35515;48.766;9.176;2023-12-14T05:32:14;5.35;;;2.95;;
49610;SDS011;35515;48.766;9.176;2023-12-14T05:34:40;6.53;;;3.28;;
49610;SDS011;35515;48.766;9.176;2023-12-14T05:37:07;5.18;;;3.80;;
49610;SDS011;35515;48.766;9.176;2023-12-14T05:39:33;4.97;;;3.72;;
49610;SDS011;35515;48.766;9.176;2023-12-14T05:42:00;6.82;;;4.05;;
49610;SDS011;35515;48.766;9.176;2023-12-14T05:44:26;5.28;;;3.67;;
49610;SDS011;35515;48.766;9.176;2023-12-14T05:46:53;4.68;;;3.72;;
49610;SDS011;35515;48.766;9.176;2023-12-14T05:49:21;4.97;;;3.83;;
49610;SDS011;35515;48.766;9.176;2023-12-14T05:51:47;5.88;;;3.92;;
49610;SDS011;35515;48.766;9.176;2023-12-14T05:54:14;6.50;;;4.00;;
49610;SDS011;35515;48.766;9.176;2023-12-14T05:56:40;4.68;;;3.67;;
49610;SDS011;35515;48.766;9.176;2023-12-14T05:59:07;5.68;;;3.80;;
49610;SDS011;35515;48.766;9.176;2023-12-14T06:01:33;9.13;;;4.75;;
49610;SDS011;35515;48.766;9.176;2023-12-14T06:04:00;9.00;;;3.97;;
49610;SDS011;35515;48.766;9.176;2023-12-14T06:06:28;5.72;;;4.35;;
49610;SDS011;35515;48.766;9.176;2023-12-14T06:08:55;5.55;;;4.13;;
49610;SDS011;35515;48.766;9.176;2023-12-14T06:11:21;4.65;;;3.55;;
49610;SDS011;35515;48.766;9.176;2023-12-14T06:13:48;7.38;;;4.03;;
49610;SDS011;35515;48.766;9.176;2023-12-14T06:16:14;6.72;;;3.78;;
49610;SDS011;35515;48.766;9.176;2023-12-14T06:18:41;6.32;;;3.60;;
49610;SDS011;35515;48.766;9.176;2023-12-14T06:21:08;6.45;;;3.78;;
49610;SDS011;35515;48.766;9.176;2023-12-14T06:23:38;5.60;;;3.40;;
49610;SDS011;35515;48.766;9.176;2023-12-14T06:26:05;5.97;;;3.75;;
49610;SDS011;35515;48.766;9.176;2023-12-14T06:28:31;5.53;;;3.65;;
49610;SDS011;35515;48.766;9.176;2023-12-14T06:30:58;6.47;;;3.83;;
49610;SDS011;35515;48.766;9.176;2023-12-14T06:33:26;7.78;;;5.18;;
49610;SDS011;35515;48.766;9.176;2023-12-14T06:35:53;6.45;;;4.65;;
49610;SDS011;35515;48.766;9.176;2023-12-14T06:38:19;6.95;;;4.20;;
49610;SDS011;35515;48.766;9.176;2023-12-14T06:40:47;5.03;;;3.40;;
49610;SDS011;35515;48.766;9.176;2023-12-14T06:43:14;5.90;;;3.85;;
49610;SDS011;35515;48.766;9.176;2023-12-14T06:45:40;7.13;;;4.55;;
49610;SDS011;35515;48.766;9.176;2023-12-14T06:48:07;6.10;;;3.85;;
49610;SDS011;35515;48.766;9.176;2023-12-14T06:50:33;9.50;;;4.30;;
49610;SDS011;35515;48.766;9.176;2023-12-14T06:53:00;5.82;;;4.25;;
49610;SDS011;35515;48.766;9.176;2023-12-14T06:55:26;7.85;;;4.28;;
49610;SDS011;35515;48.766;9.176;2023-12-14T06:57:54;6.45;;;4.43;;
49610;SDS011;35515;48.766;9.176;2023-12-14T07:00:21;7.93;;;4.55;;
49610;SDS011;35515;48.766;9.176;2023-12-14T07:02:47;7.22;;;4.43;;
49610;SDS011;35515;48.766;9.176;2023-12-14T07:05:14;8.48;;;4.65;;
49610;SDS011;35515;48.766;9.176;2023-12-14T07:07:41;6.68;;;4.32;;
49610;SDS011;35515;48.766;9.176;2023-12-14T07:10:08;6.90;;;4.38;;
49610;SDS011;35515;48.766;9.176;2023-12-14T07:12:34;8.68;;;4.93;;
49610;SDS011;35515;48.766;9.176;2023-12-14T07:15:02;9.98;;;5.05;;
49610;SDS011;35515;48.766;9.176;2023-12-14T07:17:30;7.97;;;4.72;;
49610;SDS011;35515;48.766;9.176;2023-12-14T07:19:56;9.45;;;4.70;;
49610;SDS011;35515;48.766;9.176;2023-12-14T07:22:23;8.20;;;4.53;;
49610;SDS011;35515;48.766;9.176;2023-12-14T07:24:49;7.60;;;4.20;;
49610;SDS011;35515;48.766;9.176;2023-12-14T07:27:16;10.27;;;4.70;;
49610;SDS011;35515;48.766;9.176;2023-12-14T07:29:42;9.80;;;5.38;;
49610;SDS011;35515;48.766;9.176;2023-12-14T07:32:10;6.45;;;4.40;;
49610;SDS011;35515;48.766;9.176;2023-12-14T07:34:37;5.55;;;3.50;;
49610;SDS011;35515;48.766;9.176;2023-12-14T07:37:04;5.68;;;3.90;;
49610;SDS011;35515;48.766;9.176;2023-12-14T07:39:30;6.25;;;3.78;;
49610;SDS011;35515;48.766;9.176;2023-12-14T07:41:57;5.13;;;3.50;;
49610;SDS011;35515;48.766;9.176;2023-12-14T07:44:23;6.05;;;3.85;;
49610;SDS011;35515;48.766;9.176;2023-12-14T07:46:51;6.13;;;3.58;;
49610;SDS011;35515;48.766;9.176;2023-12-14T07:49:19;6.20;;;3.83;;
49610;SDS011;35515;48.766;9.176;2023-12-14T07:51:48;5.13;;;3.67;;
49610;SDS011;35515;48.766;9.176;2023-12-14T07:54:15;4.70;;;3.22;;
49610;SDS011;35515;48.766;9.176;2023-12-14T07:56:41;5.05;;;3.65;;
49610;SDS011;35515;48.766;9.176;2023-12-14T07:59:08;6.10;;;3.90;;
49610;SDS011;35515;48.766;9.176;2023-12-14T08:01:35;4.97;;;3.22;;
49610;SDS011;35515;48.766;9.176;2023-12-14T08:04:01;4.95;;;3.25;;
49610;SDS011;35515;48.766;9.176;2023-12-14T08:06:30;5.55;;;3.60;;
49610;SDS011;35515;48.766;9.176;2023-12-14T08:08:56;5.78;;;4.20;;
49610;SDS011;35515;48.766;9.176;2023-12-14T08:11:23;5.38;;;4.03;;
49610;SDS011;35515;48.766;9.176;2023-12-14T08:13:50;5.85;;;4.13;;
49610;SDS011;35515;48.766;9.176;2023-12-14T08:16:16;5.65;;;3.78;;
49610;SDS011;35515;48.766;9.176;2023-12-14T08:18:43;4.93;;;3.75;;
49610;SDS011;35515;48.766;9.176;2023-12-14T08:21:11;5.47;;;3.38;;
49610;SDS011;35515;48.766;9.176;2023-12-14T08:23:39;5.80;;;4.10;;
49610;SDS011;35515;48.766;9.176;2023-12-14T08:26:06;6.70;;;4.53;;
49610;SDS011;35515;48.766;9.176;2023-12-14T08:28:33;5.88;;;3.40;;
49610;SDS011;35515;48.766;9.176;2023-12-14T08:30:59;8.50;;;4.50;;
49610;SDS011;35515;48.766;9.176;2023-12-14T08:33:27;5.47;;;3.78;;
49610;SDS011;35515;48.766;9.176;2023-12-14T08:35:54;6.43;;;3.92;;
49610;SDS011;35515;48.766;9.176;2023-12-14T08:38:21;8.32;;;4.95;;
49610;SDS011;35515;48.766;9.176;2023-12-14T08:40:49;6.53;;;4.22;;
49610;SDS011;35515;48.766;9.176;2023-12-14T08:43:16;8.90;;;4.40;;
49610;SDS011;35515;48.766;9.176;2023-12-14T08:45:42;6.65;;;4.82;;
49610;SDS011;35515;48.766;9.176;2023-12-14T08:48:09;7.97;;;4.60;;
49610;SDS011;35515;48.766;9.176;2023-12-14T08:50:36;6.75;;;4.80;;
49610;SDS011;35515;48.766;9.176;2023-12-14T08:53:02;6.50;;;4.72;;
49610;SDS011;35515;48.766;9.176;2023-12-14T08:55:30;6.85;;;5.20;;
49610;SDS011;35515;48.766;9.176;2023-12-14T08:57:58;8.25;;;5.30;;
49610;SDS011;35515;48.766;9.176;2023-12-14T09:00:25;6.78;;;4.97;;
49610;SDS011;35515;48.766;9.176;2023-12-14T09:02:52;8.13;;;5.40;;
49610;SDS011;35515;48.766;9.176;2023-12-14T09:05:19;8.00;;;5.13;;
49610;SDS011;35515;48.766;9.176;2023-12-14T09:07:46;8.35;;;5.43;;
49610;SDS011;35515;48.766;9.176;2023-12-14T09:10:12;7.68;;;5.40;;
49610;SDS011;35515;48.766;9.176;2023-12-14T09:12:39;10.10;;;6.22;;
49610;SDS011;35515;48.766;9.176;2023-12-14T09:15:07;9.48;;;6.45;;
49610;SDS011;35515;48.766;9.176;2023-12-14T09:17:34;9.25;;;6.57;;
49610;SDS011;35515;48.766;9.176;2023-12-14T09:20:01;6.90;;;5.32;;
49610;SDS011;35515;48.766;9.176;2023-12-14T09:22:29;8.38;;;5.45;;
49610;SDS011;35515;48.766;9.176;2023-12-14T09:24:56;9.02;;;5.70;;
49610;SDS011;35515;48.766;9.176;2023-12-14T09:27:23;9.82;;;5.00;;
49610;SDS011;35515;48.766;9.176;2023-12-14T09:29:49;9.10;;;5.53;;
49610;SDS011;35515;48.766;9.176;2023-12-14T09:32:17;9.20;;;5.50;;
49610;SDS011;35515;48.766;9.176;2023-12-14T09:34:44;8.73;;;5.28;;
49610;SDS011;35515;48.766;9.176;2023-12-14T09:37:11;10.30;;;5.90;;
49610;SDS011;35515;48.766;9.176;2023-12-14T09:39:39;7.97;;;5.80;;
49610;SDS011;35515;48.766;9.176;2023-12-14T09:42:06;9.32;;;6.63;;
49610;SDS011;35515;48.766;9.176;2023-12-14T09:44:33;9.23;;;6.10;;
49610;SDS011;35515;48.766;9.176;2023-12-14T09:47:01;8.73;;;5.93;;
49610;SDS011;35515;48.766;9.176;2023-12-14T09:49:30;11.68;;;5.97;;
49610;SDS011;35515;48.766;9.176;2023-12-14T09:51:57;8.77;;;5.78;;
49610;SDS011;35515;48.766;9.176;2023-12-14T09:54:23;10.25;;;6.90;;
49610;SDS011;35515;48.766;9.176;2023-12-14T09:56:49;13.30;;;8.02;;
49610;SDS011;35515;48.766;9.176;2023-12-14T09:59:17;12.18;;;7.22;;
49610;SDS011;35515;48.766;9.176;2023-12-14T10:01:44;12.20;;;6.82;;
49610;SDS011;35515;48.766;9.176;2023-12-14T10:04:11;10.32;;;6.65;;
49610;SDS011;35515;48.766;9.176;2023-12-14T10:06:41;9.85;;;7.15;;
49610;SDS011;35515;48.766;9.176;2023-12-14T10:09:09;12.82;;;8.00;;
49610;SDS011;35515;48.766;9.176;2023-12-14T10:11:38;10.52;;;7.20;;
49610;SDS011;35515;48.766;9.176;2023-12-14T10:14:15;11.48;;;7.05;;
49610;SDS011;35515;48.766;9.176;2023-12-14T10:16:46;10.87;;;7.37;;
49610;SDS011;35515;48.766;9.176;2023-12-14T10:19:13;13.13;;;7.60;;
49610;SDS011;35515;48.766;9.176;2023-12-14T10:21:41;10.38;;;6.78;;
49610;SDS011;35515;48.766;9.176;2023-12-14T10:24:08;12.18;;;6.78;;
49610;SDS011;35515;48.766;9.176;2023-12-14T10:26:35;12.13;;;6.72;;
49610;SDS011;35515;48.766;9.176;2023-12-14T10:29:02;11.38;;;7.45;;
49610;SDS011;35515;48.766;9.176;2023-12-14T10:31:29;11.85;;;7.05;;
49610;SDS011;35515;48.766;9.176;2023-12-14T10:33:56;8.95;;;6.50;;
49610;SDS011;35515;48.766;9.176;2023-12-14T10:36:24;10.43;;;7.18;;
49610;SDS011;35515;48.766;9.176;2023-12-14T10:38:53;10.93;;;7.70;;
49610;SDS011;35515;48.766;9.176;2023-12-14T10:41:22;10.73;;;7.20;;
49610;SDS011;35515;48.766;9.176;2023-12-14T10:43:50;11.02;;;7.43;;
49610;SDS011;35515;48.766;9.176;2023-12-14T10:46:19;13.68;;;7.93;;
49610;SDS011;35515;48.766;9.176;2023-12-14T10:48:47;10.68;;;7.18;;
49610;SDS011;35515;48.766;9.176;2023-12-14T10:51:15;9.95;;;6.60;;
49610;SDS011;35515;48.766;9.176;2023-12-14T10:53:44;13.10;;;7.00;;
49610;SDS011;35515;48.766;9.176;2023-12-14T10:56:14;9.30;;;5.63;;
49610;SDS011;35515;48.766;9.176;2023-12-14T10:58:46;11.13;;;6.32;;
49610;SDS011;35515;48.766;9.176;2023-12-14T11:01:14;8.50;;;5.90;;
49610;SDS011;35515;48.766;9.176;2023-12-14T11:03:42;9.75;;;6.13;;
49610;SDS011;35515;48.766;9.176;2023-12-14T11:06:29;12.52;;;7.00;;
49610;SDS011;35515;48.766;9.176;2023-12-14T11:08:58;9.45;;;6.47;;
49610;SDS011;35515;48.766;9.176;2023-12-14T11:11:31;7.38;;;5.55;;
49610;SDS011;35515;48.766;9.176;2023-12-14T11:14:08;10.48;;;5.32;;
49610;SDS011;35515;48.766;9.176;2023-12-14T11:16:38;9.95;;;5.60;;
49610;SDS011;35515;48.766;9.176;2023-12-14T11:19:29;7.68;;;5.55;;
49610;SDS011;35515;48.766;9.176;2023-12-14T11:21:59;9.02;;;5.10;;
49610;SDS011;35515;48.766;9.176;2023-12-14T11:24:37;8.27;;;5.10;;
49610;SDS011;35515;48.766;9.176;2023-12-14T11:27:08;10.00;;;4.85;;
49610;SDS011;35515;48.766;9.176;2023-12-14T11:29:35;8.60;;;5.65;;
49610;SDS011;35515;48.766;9.176;2023-12-14T11:32:05;7.90;;;4.72;;
49610;SDS011;35515;48.766;9.176;2023-12-14T11:34:32;11.43;;;6.00;;
49610;SDS011;35515;48.766;9.176;2023-12-14T11:36:58;8.48;;;6.10;;
49610;SDS011;35515;48.766;9.176;2023-12-14T11:39:29;9.55;;;6.22;;
49610;SDS011;35515;48.766;9.176;2023-12-14T11:41:59;11.77;;;6.78;;
49610;SDS011;35515;48.766;9.176;2023-12-14T11:44:28;11.60;;;5.85;;
49610;SDS011;35515;48.766;9.176;2023-12-14T11:46:55;9.77;;;6.18;;
49610;SDS011;35515;48.766;9.176;2023-12-14T11:49:23;14.48;;;6.28;;
49610;SDS011;35515;48.766;9.176;2023-12-14T11:51:50;11.35;;;6.82;;
49610;SDS011;35515;48.766;9.176;2023-12-14T11:54:17;9.93;;;6.28;;
49610;SDS011;35515;48.766;9.176;2023-12-14T11:56:45;9.80;;;6.15;;
49610;SDS011;35515;48.766;9.176;2023-12-14T11:59:13;10.18;;;6.45;;
49610;SDS011;35515;48.766;9.176;2023-12-14T12:01:54;7.53;;;5.45;;
49610;SDS011;35515;48.766;9.176;2023-12-14T12:04:21;12.13;;;5.85;;
49610;SDS011;35515;48.766;9.176;2023-12-14T12:06:48;7.30;;;5.07;;
49610;SDS011;35515;48.766;9.176;2023-12-14T12:12:01;7.18;;;4.20;;
49610;SDS011;35515;48.766;9.176;2023-12-14T12:14:28;6.55;;;2.80;;
49610;SDS011;35515;48.766;9.176;2023-12-14T12:16:56;4.05;;;2.40;;
49610;SDS011;35515;48.766;9.176;2023-12-14T12:19:23;2.97;;;2.17;;
49610;SDS011;35515;48.766;9.176;2023-12-14T12:21:49;5.88;;;2.92;;
49610;SDS011;35515;48.766;9.176;2023-12-14T12:24:16;3.22;;;2.05;;
49610;SDS011;35515;48.766;9.176;2023-12-14T12:26:43;3.72;;;2.33;;
49610;SDS011;35515;48.766;9.176;2023-12-14T12:29:09;4.25;;;2.97;;
49610;SDS011;35515;48.766;9.176;2023-12-14T12:31:36;4.82;;;2.30;;
49610;SDS011;35515;48.766;9.176;2023-12-14T12:34:04;4.65;;;2.42;;
49610;SDS011;35515;48.766;9.176;2023-12-14T12:36:30;4.32;;;2.10;;
49610;SDS011;35515;48.766;9.176;2023-12-14T12:38:59;4.00;;;2.60;;
49610;SDS011;35515;48.766;9.176;2023-12-14T12:41:25;4.25;;;2.60;;
49610;SDS011;35515;48.766;9.176;2023-12-14T12:43:52;3.63;;;2.30;;
49610;SDS011;35515;48.766;9.176;2023-12-14T12:46:19;3.47;;;2.30;;
49610;SDS011;35515;48.766;9.176;2023-12-14T12:48:45;3.75;;;2.28;;
49610;SDS011;35515;48.766;9.176;2023-12-14T12:51:13;3.75;;;2.63;;
49610;SDS011;35515;48.766;9.176;2023-12-14T12:53:40;4.50;;;3.03;;
49610;SDS011;35515;48.766;9.176;2023-12-14T12:56:07;3.63;;;2.40;;
49610;SDS011;35515;48.766;9.176;2023-12-14T12:58:33;3.50;;;2.42;;
49610;SDS011;35515;48.766;9.176;2023-12-14T13:01:00;4.97;;;2.55;;
49610;SDS011;35515;48.766;9.176;2023-12-14T13:03:26;3.65;;;1.85;;
49610;SDS011;35515;48.766;9.176;2023-12-14T13:05:53;4.50;;;1.67;;
49610;SDS011;35515;48.766;9.176;2023-12-14T13:08:21;3.35;;;2.17;;
49610;SDS011;35515;48.766;9.176;2023-12-14T13:10:48;3.33;;;1.90;;
49610;SDS011;35515;48.766;9.176;2023-12-14T13:13:16;6.32;;;2.15;;
49610;SDS011;35515;48.766;9.176;2023-12-14T13:15:43;4.75;;;2.50;;
49610;SDS011;35515;48.766;9.176;2023-12-14T13:18:09;4.32;;;2.67;;
49610;SDS011;35515;48.766;9.176;2023-12-14T13:20:36;5.05;;;2.67;;
49610;SDS011;35515;48.766;9.176;2023-12-14T13:23:02;5.30;;;2.38;;
49610;SDS011;35515;48.766;9.176;2023-12-14T13:25:30;5.88;;;2.67;;
49610;SDS011;35515;48.766;9.176;2023-12-14T13:27:57;5.35;;;2.20;;
49610;SDS011;35515;48.766;9.176;2023-12-14T13:30:23;4.70;;;2.45;;
49610;SDS011;35515;48.766;9.176;2023-12-14T13:32:51;2.50;;;1.80;;
49610;SDS011;35515;48.766;9.176;2023-12-14T13:35:18;2.80;;;1.80;;
49610;SDS011;35515;48.766;9.176;2023-12-14T13:37:45;5.78;;;2.35;;
49610;SDS011;35515;48.766;9.176;2023-12-14T13:40:12;2.83;;;1.85;;
49610;SDS011;35515;48.766;9.176;2023-12-14T13:42:40;4.00;;;2.10;;
49610;SDS011;35515;48.766;9.176;2023-12-14T13:45:07;3.78;;;2.35;;
49610;SDS011;35515;48.766;9.176;2023-12-14T13:47:35;3.20;;;2.10;;
49610;SDS011;35515;48.766;9.176;2023-12-14T13:50:01;4.40;;;2.67;;
49610;SDS011;35515;48.766;9.176;2023-12-14T13:52:29;4.53;;;2.25;;
49610;SDS011;35515;48.766;9.176;2023-12-14T13:54:56;6.43;;;2.28;;
49610;SDS011;35515;48.766;9.176;2023-12-14T13:57:24;2.95;;;2.28;;
49610;SDS011;35515;48.766;9.176;2023-12-14T13:59:52;4.32;;;2.63;;
49610;SDS011;35515;48.766;9.176;2023-12-14T14:02:18;4.57;;;2.25;;
49610;SDS011;35515;48.766;9.176;2023-12-14T14:04:45;4.25;;;2.70;;
49610;SDS011;35515;48.766;9.176;2023-12-14T14:07:11;4.72;;;2.53;;
49610;SDS011;35515;48.766;9.176;2023-12-14T14:09:38;2.83;;;2.35;;
49610;SDS011;35515;48.766;9.176;2023-12-14T14:12:04;6.53;;;3.15;;
49610;SDS011;35515;48.766;9.176;2023-12-14T14:14:31;5.40;;;3.28;;
49610;SDS011;35515;48.766;9.176;2023-12-14T14:16:59;5.03;;;3.42;;
49610;SDS011;35515;48.766;9.176;2023-12-14T14:19:27;6.72;;;4.38;;
49610;SDS011;35515;48.766;9.176;2023-12-14T14:21:53;7.28;;;4.15;;
49610;SDS011;35515;48.766;9.176;2023-12-14T14:24:20;8.00;;;4.18;;
49610;SDS011;35515;48.766;9.176;2023-12-14T14:26:46;7.88;;;4.65;;
49610;SDS011;35515;48.766;9.176;2023-12-14T14:29:16;9.00;;;5.70;;
49610;SDS011;35515;48.766;9.176;2023-12-14T14:31:43;8.35;;;4.95;;
49610;SDS011;35515;48.766;9.176;2023-12-14T14:34:11;8.60;;;5.60;;
49610;SDS011;35515;48.766;9.176;2023-12-14T14:36:38;10.88;;;6.72;;
49610;SDS011;35515;48.766;9.176;2023-12-14T14:39:04;10.75;;;6.78;;
49610;SDS011;35515;48.766;9.176;2023-12-14T14:41:31;10.82;;;6.57;;
49610;SDS011;35515;48.766;9.176;2023-12-14T14:43:57;11.48;;;6.88;;
49610;SDS011;35515;48.766;9.176;2023-12-14T14:46:24;12.50;;;8.13;;
49610;SDS011;35515;48.766;9.176;2023-12-14T14:48:50;13.85;;;7.97;;